Time;durP1;ratioP1;P1;durP2;ratioP2;P2;SDS_P1;SDS_P2;PMS_P1;PMS_P2;Temp;Humidity;BMP_temperature;BMP_pressure;BME280_temperature;BME280_humidity;BME280_pressure;Samples;Min_cycle;Max_cycle;Signal;HPM_P1;HPM_P2
2022/01/13 00:01:42;;;;;;;425.08;28.73;;;4.60;99.90;;;;;;5113513;28;20058;-72
2022/01/13 00:04:12;;;;;;;283.38;25.08;;;4.50;99.90;;;;;;5113097;28;20083;-72
2022/01/13 00:06:39;;;;;;;294.83;25.50;;;4.50;99.90;;;;;;5113205;28;20055;-71
2022/01/13 00:09:06;;;;;;;167.88;23.60;;;4.50;99.90;;;;;;5094779;28;20067;-72
2022/01/13 00:11:32;;;;;;;360.50;26.15;;;4.60;99.90;;;;;;5112618;28;20064;-71
2022/01/13 00:22:45;;;;;;;458.35;29.48;;;4.60;99.90;;;;;;5113124;28;20047;-72
2022/01/13 00:25:01;;;;;;;156.93;22.38;;;4.60;99.90;;;;;;5092503;28;20130;-72
2022/01/13 00:27:29;;;;;;;254.48;22.05;;;4.60;99.90;;;;;;5112764;28;20047;-72
2022/01/13 00:29:58;;;;;;;164.02;21.52;;;4.60;99.90;;;;;;5094398;28;20364;-72
2022/01/13 00:32:27;;;;;;;340.25;24.73;;;4.60;99.90;;;;;;5112417;28;20052;-72
2022/01/13 00:34:53;;;;;;;219.05;22.70;;;4.60;99.90;;;;;;5094364;28;20048;-71
2022/01/13 00:37:19;;;;;;;242.25;22.17;;;4.60;99.90;;;;;;5112716;28;20399;-71
2022/01/13 00:39:45;;;;;;;239.20;22.65;;;4.60;99.90;;;;;;5112850;28;20428;-71
2022/01/13 00:42:10;;;;;;;186.25;19.33;;;4.60;99.90;;;;;;5112852;28;20040;-71
2022/01/13 00:44:38;;;;;;;230.13;20.73;;;4.70;99.90;;;;;;5094432;28;20048;-71
2022/01/13 00:47:07;;;;;;;197.98;19.48;;;4.70;99.90;;;;;;5112611;28;20059;-71
2022/01/13 00:49:33;;;;;;;191.43;18.08;;;4.70;99.90;;;;;;5112842;28;20100;-70
2022/01/13 00:51:59;;;;;;;229.00;18.15;;;4.70;99.90;;;;;;5111303;28;20128;-71
2022/01/13 00:54:25;;;;;;;306.25;20.13;;;4.80;99.90;;;;;;5094262;28;20483;-70
2022/01/13 00:56:51;;;;;;;165.35;17.92;;;4.80;99.90;;;;;;5094236;28;20124;-71
2022/01/13 00:59:17;;;;;;;150.02;16.65;;;4.80;99.90;;;;;;5094192;28;20476;-70
2022/01/13 01:01:46;;;;;;;189.25;16.40;;;4.80;99.90;;;;;;5113000;28;20051;-72
2022/01/13 01:04:12;;;;;;;181.63;17.67;;;4.80;99.90;;;;;;5112541;28;20140;-72
2022/01/13 01:06:39;;;;;;;254.70;19.83;;;4.90;99.90;;;;;;5094657;28;20471;-70
2022/01/13 01:09:06;;;;;;;120.70;16.77;;;4.80;99.90;;;;;;5112397;28;20044;-72
2022/01/13 01:11:32;;;;;;;;;;;4.90;99.90;;;;;;5112961;28;20044;-69
2022/01/13 01:14:00;;;;;;;122.15;15.73;;;4.90;99.90;;;;;;5095007;28;20052;-70
2022/01/13 01:16:26;;;;;;;219.63;17.92;;;4.90;99.90;;;;;;5113236;28;20341;-70
2022/01/13 01:19:05;;;;;;;140.10;15.37;;;4.90;99.90;;;;;;5112387;28;20452;-71
2022/01/13 01:26:43;;;;;;;153.85;16.75;;;4.90;99.90;;;;;;5113121;28;20054;-70
2022/01/13 01:29:23;;;;;;;177.90;17.33;;;5.00;99.90;;;;;;5112357;28;20059;-70
2022/01/13 01:31:53;;;;;;;145.57;15.48;;;5.00;99.90;;;;;;5095000;28;20480;-71
2022/01/13 01:36:56;;;;;;;282.95;18.10;;;5.00;99.90;;;;;;5112274;28;20097;-71
2022/01/13 01:39:23;;;;;;;165.75;15.35;;;4.90;99.90;;;;;;5094144;28;20465;-72
2022/01/13 01:41:51;;;;;;;140.47;15.50;;;4.90;99.90;;;;;;5094117;28;20135;-71
2022/01/13 01:44:35;;;;;;;190.55;16.13;;;4.90;99.90;;;;;;5095709;28;20123;-70
2022/01/13 01:47:02;;;;;;;134.32;14.27;;;5.00;99.90;;;;;;5115881;28;20231;-70
2022/01/13 01:49:28;;;;;;;179.10;14.25;;;5.00;99.90;;;;;;5115773;28;20074;-72
2022/01/13 01:52:00;;;;;;;172.65;14.80;;;4.90;99.90;;;;;;5115796;28;20140;-72
2022/01/13 01:54:27;;;;;;;123.32;13.60;;;4.90;99.90;;;;;;5115657;28;20113;-70
2022/01/13 01:56:54;;;;;;;222.70;16.13;;;4.90;99.90;;;;;;5115691;28;20056;-71
2022/01/13 01:59:24;;;;;;;212.37;16.73;;;5.00;99.90;;;;;;5116284;28;20121;-71
2022/01/13 02:01:51;;;;;;;92.72;11.77;;;5.00;99.90;;;;;;5097783;28;20418;-71
2022/01/13 02:04:21;;;;;;;98.38;12.10;;;5.00;99.90;;;;;;5081165;28;20434;-72
2022/01/13 02:06:47;;;;;;;254.57;16.85;;;4.90;99.90;;;;;;5097950;28;20039;-71
2022/01/13 02:09:19;;;;;;;121.00;13.68;;;5.00;99.90;;;;;;5115273;28;20508;-71
2022/01/13 02:11:50;;;;;;;122.20;13.15;;;5.00;99.90;;;;;;5115649;28;20043;-71
2022/01/13 02:16:55;;;;;;;161.93;13.48;;;5.00;99.90;;;;;;5097373;28;20134;-71
2022/01/13 02:19:24;;;;;;;176.65;13.63;;;5.00;99.90;;;;;;5096664;28;20499;-71
2022/01/13 02:21:49;;;;;;;169.98;14.75;;;5.00;99.90;;;;;;5096709;28;20071;-71
2022/01/13 02:24:15;;;;;;;138.93;14.38;;;5.00;99.90;;;;;;5114548;28;20083;-72
2022/01/13 02:26:42;;;;;;;116.85;13.07;;;5.00;99.90;;;;;;5097583;28;20047;-70
2022/01/13 02:29:08;;;;;;;101.32;14.15;;;5.00;99.90;;;;;;5096467;28;20482;-70
2022/01/13 02:31:34;;;;;;;283.40;17.38;;;5.00;99.90;;;;;;5114946;28;20047;-70
2022/01/13 02:33:59;;;;;;;170.27;16.13;;;5.00;99.90;;;;;;5096387;28;20472;-73
2022/01/13 02:36:27;;;;;;;140.07;14.20;;;5.00;99.90;;;;;;5115104;28;20067;-70
2022/01/13 02:38:54;;;;;;;146.68;14.25;;;5.00;99.90;;;;;;5114402;28;20051;-71
2022/01/13 02:41:24;;;;;;;100.20;12.77;;;5.00;99.90;;;;;;5096523;28;20035;-70
2022/01/13 02:43:55;;;;;;;136.20;13.35;;;5.10;99.90;;;;;;5096740;28;20376;-71
2022/01/13 02:49:12;;;;;;;144.85;14.10;;;5.00;99.90;;;;;;5096574;28;20052;-71
2022/01/13 02:51:39;;;;;;;133.07;13.75;;;5.00;99.90;;;;;;5114981;28;20356;-70
2022/01/13 02:54:06;;;;;;;257.52;17.25;;;5.00;99.90;;;;;;5114218;28;20083;-70
2022/01/13 02:56:32;;;;;;;97.38;10.57;;;5.00;99.90;;;;;;5114343;28;20110;-71
2022/01/13 02:58:58;;;;;;;111.82;13.68;;;5.00;99.90;;;;;;5079890;28;20048;-71
2022/01/13 03:01:24;;;;;;;256.75;16.38;;;4.90;99.90;;;;;;5114119;28;20122;-70
2022/01/13 03:03:51;;;;;;;147.00;14.15;;;4.90;99.90;;;;;;5078976;28;20044;-72
2022/01/13 03:06:31;;;;;;;180.40;16.08;;;4.90;99.90;;;;;;5113370;28;20360;-71
2022/01/13 03:08:57;;;;;;;102.00;12.75;;;4.90;99.90;;;;;;5114149;28;20051;-70
2022/01/13 03:11:30;;;;;;;227.50;15.15;;;4.90;99.90;;;;;;5113963;28;20043;-69
2022/01/13 03:13:56;;;;;;;142.77;14.00;;;4.90;99.90;;;;;;5096346;28;20044;-70
2022/01/13 03:16:22;;;;;;;83.88;10.35;;;4.90;99.90;;;;;;5095775;28;20048;-70
2022/01/13 03:18:48;;;;;;;178.98;14.20;;;4.90;99.90;;;;;;5113830;28;20046;-70
2022/01/13 03:21:14;;;;;;;184.32;15.30;;;4.90;99.90;;;;;;5113795;28;20043;-72
2022/01/13 03:23:39;;;;;;;201.25;15.70;;;4.90;99.90;;;;;;5113950;28;20460;-69
2022/01/13 03:26:06;;;;;;;152.98;13.55;;;4.80;99.90;;;;;;5078828;28;20058;-71
2022/01/13 03:28:38;;;;;;;180.77;15.43;;;4.90;99.90;;;;;;5095368;28;20153;-70
2022/01/13 03:31:06;;;;;;;156.32;13.70;;;4.90;99.90;;;;;;5114044;28;20109;-71
2022/01/13 03:33:32;;;;;;;;;;;4.80;99.90;;;;;;5095979;28;20053;-70
2022/01/13 03:35:58;;;;;;;101.82;13.02;;;4.80;99.90;;;;;;5095074;28;20438;-69
2022/01/13 03:38:25;;;;;;;100.18;12.45;;;4.80;99.90;;;;;;5078494;28;20383;-69
2022/01/13 03:40:51;;;;;;;118.30;13.07;;;4.80;99.90;;;;;;5094747;28;20043;-70
2022/01/13 03:43:18;;;;;;;131.18;13.45;;;4.80;99.90;;;;;;5113939;28;20353;-70
2022/01/13 03:45:45;;;;;;;190.95;14.05;;;4.80;99.90;;;;;;5095097;28;20043;-71
2022/01/13 03:48:13;;;;;;;;;;;4.80;99.90;;;;;;5113641;28;20398;-71
2022/01/13 03:50:43;;;;;;;91.93;11.43;;;4.80;99.90;;;;;;5111926;28;20006;-71
2022/01/13 03:53:27;;;;;;;144.52;12.70;;;4.80;99.90;;;;;;5113589;28;20051;-72
2022/01/13 03:56:30;;;;;;;111.88;12.98;;;4.80;99.90;;;;;;5113681;28;20471;-71
2022/01/13 03:58:59;;;;;;;124.22;11.77;;;4.80;99.90;;;;;;5113123;28;20054;-70
2022/01/13 04:02:02;;;;;;;56.72;8.93;;;4.80;99.90;;;;;;5112958;28;20474;-70
2022/01/13 04:04:37;;;;;;;115.28;12.18;;;4.80;99.90;;;;;;5095148;28;20397;-71
2022/01/13 04:07:08;;;;;;;98.45;11.82;;;4.80;99.90;;;;;;5112300;28;20047;-70
2022/01/13 04:09:34;;;;;;;80.90;11.60;;;4.80;99.90;;;;;;5094605;28;20043;-70
2022/01/13 04:12:04;;;;;;;80.57;11.23;;;4.80;99.90;;;;;;5094836;28;20523;-70
2022/01/13 04:14:38;;;;;;;87.85;10.57;;;4.80;99.90;;;;;;5112738;28;20051;-70
2022/01/13 04:17:04;;;;;;;92.18;12.13;;;4.80;99.90;;;;;;5094836;28;20503;-71
2022/01/13 04:19:30;;;;;;;77.50;12.32;;;4.80;99.90;;;;;;5094182;28;20123;-70
2022/01/13 04:21:56;;;;;;;135.65;13.25;;;4.80;99.90;;;;;;5094335;28;20047;-70
2022/01/13 04:24:21;;;;;;;93.03;10.98;;;4.80;99.90;;;;;;5094076;28;20048;-71
2022/01/13 04:26:47;;;;;;;103.20;12.65;;;4.80;99.90;;;;;;5078048;28;20066;-71
2022/01/13 04:31:45;;;;;;;78.95;11.05;;;4.80;99.90;;;;;;5113359;28;20047;-70
2022/01/13 04:34:11;;;;;;;102.97;11.75;;;4.80;99.90;;;;;;5094590;28;20126;-70
2022/01/13 04:36:38;;;;;;;97.87;11.93;;;4.80;99.90;;;;;;5094611;28;20073;-70
2022/01/13 04:39:05;;;;;;;95.28;12.07;;;4.80;99.90;;;;;;5112808;28;20040;-70
2022/01/13 04:41:36;;;;;;;143.20;15.00;;;4.80;99.90;;;;;;5095033;28;20074;-70
2022/01/13 04:44:23;;;;;;;89.60;11.95;;;4.80;99.90;;;;;;5112926;28;20409;-71
2022/01/13 04:46:50;;;;;;;;;;;4.70;99.90;;;;;;5113810;28;20043;-69
2022/01/13 04:49:18;;;;;;;;;;;4.70;99.90;;;;;;5112966;28;20346;-72
2022/01/13 04:51:45;;;;;;;84.25;11.38;;;4.70;99.90;;;;;;5094283;28;20324;-70
2022/01/13 04:54:11;;;;;;;120.53;12.73;;;4.70;99.90;;;;;;5111337;28;20039;-70
2022/01/13 04:59:03;;;;;;;59.78;10.88;;;4.70;99.90;;;;;;5112518;28;20173;-71
2022/01/13 05:01:29;;;;;;;129.73;14.00;;;4.70;99.90;;;;;;5094094;28;20043;-70
2022/01/13 05:03:55;;;;;;;92.15;12.13;;;4.60;99.90;;;;;;5095147;28;20428;-71
2022/01/13 05:06:20;;;;;;;66.97;11.20;;;4.50;99.90;;;;;;5111249;28;20040;-70
2022/01/13 05:08:47;;;;;;;67.47;10.90;;;4.60;99.90;;;;;;5094551;28;20396;-71
2022/01/13 05:11:14;;;;;;;70.45;11.38;;;4.70;99.90;;;;;;5093742;28;20547;-71
2022/01/13 05:13:40;;;;;;;73.97;10.93;;;4.70;99.90;;;;;;5076958;28;20519;-70
2022/01/13 05:16:09;;;;;;;107.32;12.90;;;4.60;99.90;;;;;;5094464;28;20167;-71
2022/01/13 05:18:47;;;;;;;62.85;10.15;;;4.60;99.90;;;;;;5078518;28;20053;-71
2022/01/13 05:21:25;;;;;;;65.72;12.88;;;4.60;99.90;;;;;;5098340;28;20079;-71
2022/01/13 05:23:52;;;;;;;79.63;10.93;;;4.60;99.90;;;;;;5116827;28;20082;-72
2022/01/13 05:26:23;;;;;;;72.00;11.82;;;4.60;99.90;;;;;;5117038;28;20131;-73
2022/01/13 05:28:49;;;;;;;99.65;12.95;;;4.60;99.90;;;;;;5081800;28;20531;-71
2022/01/13 05:31:15;;;;;;;64.95;12.68;;;4.60;99.90;;;;;;5098339;28;20120;-70
2022/01/13 05:33:42;;;;;;;116.53;14.32;;;4.60;99.90;;;;;;5097986;28;20413;-70
2022/01/13 05:36:07;;;;;;;71.63;12.07;;;4.70;99.90;;;;;;5080813;28;20048;-71
2022/01/13 05:38:33;;;;;;;81.32;13.65;;;4.60;99.90;;;;;;5081899;28;20297;-72
2022/01/13 05:40:59;;;;;;;79.88;12.57;;;4.60;99.90;;;;;;5115886;28;20460;-71
2022/01/13 05:43:25;;;;;;;95.28;13.38;;;4.70;99.90;;;;;;5097668;28;20108;-70
2022/01/13 05:45:51;;;;;;;161.40;14.77;;;4.60;99.90;;;;;;5114728;28;20047;-70
2022/01/13 05:48:17;;;;;;;128.40;13.65;;;4.60;99.90;;;;;;5114514;28;20055;-70
2022/01/13 05:50:43;;;;;;;95.00;12.27;;;4.50;99.90;;;;;;5080788;28;20043;-71
2022/01/13 05:53:09;;;;;;;139.57;14.85;;;4.60;99.90;;;;;;5114817;28;20043;-71
2022/01/13 05:55:34;;;;;;;91.55;11.68;;;4.60;99.90;;;;;;5114808;28;20467;-69
2022/01/13 05:58:01;;;;;;;87.88;11.70;;;4.60;99.90;;;;;;5115560;28;20100;-71
2022/01/13 06:00:27;;;;;;;70.78;11.70;;;4.60;99.90;;;;;;5097267;28;20084;-70
2022/01/13 06:02:53;;;;;;;117.80;13.25;;;4.60;99.90;;;;;;5115454;28;20043;-71
2022/01/13 06:05:21;;;;;;;87.65;12.38;;;4.60;99.90;;;;;;5080254;28;20387;-71
2022/01/13 06:07:47;;;;;;;77.13;12.95;;;4.60;99.90;;;;;;5115353;28;20052;-71
2022/01/13 06:10:18;;;;;;;91.68;13.02;;;4.60;99.90;;;;;;5096993;28;20078;-70
2022/01/13 06:12:48;;;;;;;85.47;12.50;;;4.50;99.90;;;;;;5115216;28;20047;-71
2022/01/13 06:15:15;;;;;;;109.15;12.80;;;4.60;99.90;;;;;;5115377;28;20051;-69
2022/01/13 06:17:42;;;;;;;;;;;4.60;99.90;;;;;;5097464;28;20169;-68
2022/01/13 06:20:10;;;;;;;59.78;11.57;;;4.60;99.90;;;;;;5097210;28;19958;-70
2022/01/13 06:22:37;;;;;;;126.38;14.07;;;4.60;99.90;;;;;;5096628;28;20060;-70
2022/01/13 06:25:05;;;;;;;90.63;12.63;;;4.50;99.90;;;;;;5115052;28;20198;-69
2022/01/13 06:27:31;;;;;;;117.78;15.18;;;4.50;99.90;;;;;;5097370;28;20467;-70
2022/01/13 06:29:58;;;;;;;126.32;15.35;;;4.50;99.90;;;;;;5096347;28;20131;-71
2022/01/13 06:32:24;;;;;;;94.50;13.55;;;4.50;99.90;;;;;;5096784;28;20055;-70
2022/01/13 06:34:51;;;;;;;74.43;13.20;;;4.60;99.90;;;;;;5115084;28;20048;-71
2022/01/13 06:37:18;;;;;;;129.95;15.88;;;4.50;99.90;;;;;;5080271;28;20166;-70
2022/01/13 06:39:44;;;;;;;87.38;14.50;;;4.50;99.90;;;;;;5114541;28;20123;-69
2022/01/13 06:42:10;;;;;;;102.70;14.43;;;4.60;99.90;;;;;;5114750;28;20039;-69
2022/01/13 06:44:37;;;;;;;103.20;14.18;;;4.50;99.90;;;;;;5114600;28;20050;-68
2022/01/13 06:47:03;;;;;;;76.45;14.20;;;4.60;99.90;;;;;;5114687;28;20175;-69
2022/01/13 06:49:29;;;;;;;141.57;15.73;;;4.60;99.90;;;;;;5096420;28;20432;-70
2022/01/13 06:51:56;;;;;;;79.85;13.07;;;4.60;99.90;;;;;;5114472;28;20078;-69
2022/01/13 06:54:21;;;;;;;129.10;14.57;;;4.50;99.90;;;;;;5096487;28;20043;-69
2022/01/13 06:56:47;;;;;;;73.47;11.63;;;4.50;99.90;;;;;;5113058;28;20040;-69
2022/01/13 06:59:13;;;;;;;100.63;13.57;;;4.60;99.90;;;;;;5096473;28;20364;-70
2022/01/13 07:01:40;;;;;;;77.55;11.32;;;4.60;99.90;;;;;;5079066;28;20464;-69
2022/01/13 07:04:10;;;;;;;109.20;13.55;;;4.50;99.90;;;;;;5078996;28;20048;-69
2022/01/13 07:06:37;;;;;;;154.05;15.20;;;4.50;99.90;;;;;;5114169;28;20124;-69
2022/01/13 07:09:06;;;;;;;57.40;12.20;;;4.60;99.90;;;;;;5112777;28;20368;-70
2022/01/13 07:11:32;;;;;;;88.75;13.52;;;4.60;99.90;;;;;;5095869;28;20461;-70
2022/01/13 07:13:57;;;;;;;102.18;13.60;;;4.50;99.90;;;;;;5114270;28;20153;-71
2022/01/13 07:16:23;;;;;;;96.00;12.43;;;4.60;99.90;;;;;;5114278;28;20074;-70
2022/01/13 07:18:49;;;;;;;145.70;14.32;;;4.60;99.90;;;;;;5113792;28;20051;-69
2022/01/13 07:21:16;;;;;;;174.38;15.30;;;4.50;99.90;;;;;;5113921;28;20081;-70
2022/01/13 07:23:43;;;;;;;120.43;13.60;;;4.60;99.90;;;;;;5112370;28;20059;-70
2022/01/13 07:26:09;;;;;;;175.65;17.23;;;4.60;99.90;;;;;;5095575;28;20137;-70
2022/01/13 07:28:34;;;;;;;105.80;14.50;;;4.50;99.90;;;;;;5095756;28;20048;-72
2022/01/13 07:31:00;;;;;;;192.45;17.60;;;4.60;99.90;;;;;;5095503;28;20036;-71
2022/01/13 07:33:27;;;;;;;73.90;11.00;;;4.60;99.90;;;;;;5113618;28;20044;-71
2022/01/13 07:35:54;;;;;;;100.85;15.23;;;4.60;99.90;;;;;;5096255;28;20118;-71
2022/01/13 07:38:20;;;;;;;105.30;15.07;;;4.60;99.90;;;;;;5095349;28;20040;-69
2022/01/13 07:40:46;;;;;;;166.85;17.10;;;4.60;99.90;;;;;;5112535;28;20039;-69
2022/01/13 07:43:12;;;;;;;97.88;14.23;;;4.60;99.90;;;;;;5078327;28;20047;-70
2022/01/13 07:45:38;;;;;;;119.55;15.40;;;4.60;99.90;;;;;;5113456;28;20044;-72
2022/01/13 07:48:05;;;;;;;126.28;16.05;;;4.60;99.90;;;;;;5095949;28;20051;-69
2022/01/13 07:50:31;;;;;;;102.60;13.85;;;4.60;99.90;;;;;;5095044;28;20043;-70
2022/01/13 07:52:57;;;;;;;109.18;15.40;;;4.60;99.90;;;;;;5114010;28;20062;-70
2022/01/13 07:55:22;;;;;;;140.70;16.05;;;4.60;99.90;;;;;;5095230;28;20487;-70
2022/01/13 07:57:48;;;;;;;117.57;14.80;;;4.60;99.90;;;;;;5113216;28;20494;-69
2022/01/13 08:00:14;;;;;;;133.25;15.63;;;4.60;99.90;;;;;;5095410;28;20096;-69
2022/01/13 08:02:41;;;;;;;89.43;14.20;;;4.60;99.90;;;;;;5077940;28;20051;-71
2022/01/13 08:05:08;;;;;;;83.55;13.45;;;4.70;99.90;;;;;;5078484;28;20053;-71
2022/01/13 08:07:34;;;;;;;94.38;13.75;;;4.60;99.90;;;;;;5113684;28;20043;-69
2022/01/13 08:10:00;;;;;;;127.55;15.82;;;4.70;99.90;;;;;;5112709;28;20036;-70
2022/01/13 08:12:26;;;;;;;171.15;15.88;;;4.70;99.90;;;;;;5095007;28;20047;-69
2022/01/13 08:14:52;;;;;;;137.60;16.40;;;4.70;99.90;;;;;;5094987;28;20056;-69
2022/01/13 08:20:03;;;;;;;103.65;15.02;;;4.70;99.90;;;;;;5111842;28;20466;-69
2022/01/13 08:22:29;;;;;;;77.40;13.38;;;4.60;99.90;;;;;;5094533;28;20070;-69
2022/01/13 08:24:54;;;;;;;149.30;14.85;;;4.70;99.90;;;;;;5077711;28;20048;-70
2022/01/13 08:27:20;;;;;;;119.93;14.40;;;4.60;99.90;;;;;;5113084;28;20040;-70
2022/01/13 08:29:46;;;;;;;94.75;14.27;;;4.70;99.90;;;;;;5094973;28;20488;-70
2022/01/13 08:32:11;;;;;;;78.03;12.90;;;4.70;99.90;;;;;;5112081;28;20058;-70
2022/01/13 08:34:37;;;;;;;81.22;13.98;;;4.70;99.90;;;;;;5077587;28;20121;-70
2022/01/13 08:37:03;;;;;;;77.97;14.13;;;4.70;99.90;;;;;;5094521;28;20075;-70
2022/01/13 08:39:30;;;;;;;128.80;14.98;;;4.70;99.90;;;;;;5112523;28;20116;-70
2022/01/13 08:41:55;;;;;;;74.95;13.90;;;4.80;99.90;;;;;;5111588;28;20039;-68
2022/01/13 08:44:21;;;;;;;111.95;14.85;;;4.80;99.90;;;;;;5113127;28;20113;-71
2022/01/13 08:46:47;;;;;;;76.43;12.82;;;4.80;99.90;;;;;;5112537;28;20403;-71
2022/01/13 08:49:13;;;;;;;86.63;12.95;;;4.80;99.90;;;;;;5094496;28;20048;-69
2022/01/13 08:51:39;;;;;;;66.20;12.98;;;4.80;99.90;;;;;;5113510;28;20044;-70
2022/01/13 08:54:04;;;;;;;76.85;12.60;;;4.80;99.90;;;;;;5097594;28;20043;-69
2022/01/13 08:56:30;;;;;;;77.10;13.15;;;4.80;99.90;;;;;;5081993;28;20070;-69
2022/01/13 08:58:56;;;;;;;70.95;11.93;;;4.80;99.90;;;;;;5116828;28;20062;-69
2022/01/13 09:01:22;;;;;;;87.57;13.70;;;4.80;99.90;;;;;;5116468;28;20104;-68
2022/01/13 09:03:47;;;;;;;117.38;14.77;;;4.80;99.90;;;;;;5098436;28;20044;-71
2022/01/13 09:06:13;;;;;;;104.45;14.75;;;4.80;99.90;;;;;;5099330;28;20036;-71
2022/01/13 09:08:40;;;;;;;98.38;14.80;;;4.90;99.90;;;;;;5098972;28;20472;-70
2022/01/13 09:11:06;;;;;;;84.97;13.45;;;4.90;99.90;;;;;;5098862;28;20353;-72
2022/01/13 09:13:36;;;;;;;101.88;14.45;;;4.90;99.90;;;;;;5098385;28;20062;-69
2022/01/13 09:16:04;;;;;;;84.47;15.27;;;4.90;99.90;;;;;;5098848;28;20134;-70
2022/01/13 09:18:45;;;;;;;93.50;13.77;;;4.90;99.90;;;;;;5117033;28;20051;-70
2022/01/13 09:21:11;;;;;;;106.25;14.02;;;4.90;99.90;;;;;;5098990;28;20401;-69
2022/01/13 09:23:37;;;;;;;131.07;16.25;;;4.90;99.90;;;;;;5097801;28;20098;-70
2022/01/13 09:26:04;;;;;;;128.85;16.23;;;4.90;99.90;;;;;;5115073;28;20086;-69
2022/01/13 09:28:35;;;;;;;93.93;13.18;;;4.90;99.90;;;;;;5099122;28;20097;-69
2022/01/13 09:31:01;;;;;;;100.45;13.20;;;5.00;99.90;;;;;;5116235;28;20047;-70
2022/01/13 09:33:26;;;;;;;93.45;14.35;;;5.00;99.90;;;;;;5116239;28;20426;-69
2022/01/13 09:35:52;;;;;;;82.50;13.32;;;5.00;99.90;;;;;;5116259;28;20392;-69
2022/01/13 09:38:18;;;;;;;106.95;13.48;;;5.00;99.90;;;;;;5098134;28;20054;-70
2022/01/13 09:40:45;;;;;;;83.07;12.98;;;5.10;99.90;;;;;;5116307;28;20420;-70
2022/01/13 09:43:11;;;;;;;79.20;13.23;;;5.10;99.90;;;;;;5097910;28;20105;-71
2022/01/13 09:45:38;;;;;;;98.03;14.23;;;5.10;99.90;;;;;;5116165;28;20042;-70
2022/01/13 09:48:04;;;;;;;91.03;14.70;;;5.10;99.90;;;;;;5116647;28;20281;-70
2022/01/13 09:50:31;;;;;;;89.68;13.20;;;5.10;99.90;;;;;;5116018;28;20046;-69
2022/01/13 09:52:57;;;;;;;93.67;14.60;;;5.20;99.90;;;;;;5098061;28;20093;-71
2022/01/13 09:55:22;;;;;;;122.70;14.50;;;5.20;99.90;;;;;;5097609;28;20079;-71
2022/01/13 09:57:50;;;;;;;92.88;14.52;;;5.20;99.90;;;;;;5080860;28;20131;-69
2022/01/13 10:00:24;;;;;;;109.28;15.18;;;5.20;99.90;;;;;;5097437;28;20468;-70
2022/01/13 10:02:51;;;;;;;111.53;15.73;;;5.30;99.90;;;;;;5097614;28;20189;-69
2022/01/13 10:05:18;;;;;;;98.70;14.60;;;5.30;99.90;;;;;;5114870;28;20185;-70
2022/01/13 10:07:46;;;;;;;115.85;13.57;;;5.30;99.90;;;;;;5114073;28;20486;-70
2022/01/13 10:10:15;;;;;;;109.25;13.68;;;5.40;99.90;;;;;;5115358;28;20110;-70
2022/01/13 10:12:44;;;;;;;108.22;14.18;;;5.40;99.90;;;;;;5115545;28;20077;-69
2022/01/13 10:18:00;;;;;;;69.40;12.57;;;5.40;99.90;;;;;;5115601;28;20376;-70
2022/01/13 10:20:27;;;;;;;77.22;12.75;;;5.40;99.90;;;;;;5080227;28;20494;-70
2022/01/13 10:22:53;;;;;;;103.43;14.20;;;5.40;99.90;;;;;;5115006;28;20059;-69
2022/01/13 10:25:30;;;;;;;74.30;13.30;;;5.40;99.90;;;;;;5079588;28;20055;-70
2022/01/13 10:28:10;;;;;;;93.35;13.60;;;5.40;99.90;;;;;;5115075;28;20055;-72
2022/01/13 10:30:37;;;;;;;70.63;13.05;;;5.50;99.90;;;;;;5114797;28;20472;-70
2022/01/13 10:33:17;;;;;;;89.50;15.57;;;5.50;99.90;;;;;;5115675;28;20403;-71
2022/01/13 10:35:43;;;;;;;87.75;14.57;;;5.50;99.90;;;;;;5114787;28;20052;-69
2022/01/13 10:38:09;;;;;;;133.50;16.65;;;5.50;99.90;;;;;;5115134;28;20126;-69
2022/01/13 10:40:40;;;;;;;87.60;13.40;;;5.50;99.90;;;;;;5114596;28;20123;-69
2022/01/13 10:43:09;;;;;;;61.13;11.40;;;5.50;99.90;;;;;;5115041;28;20115;-69
2022/01/13 10:45:37;;;;;;;96.45;13.45;;;5.50;99.90;;;;;;5096649;28;20054;-71
2022/01/13 10:48:07;;;;;;;84.57;14.05;;;5.50;99.90;;;;;;5114664;28;20051;-70
2022/01/13 10:50:41;;;;;;;108.65;15.02;;;5.50;99.90;;;;;;5096438;28;20059;-70
2022/01/13 10:53:15;;;;;;;100.32;14.23;;;5.50;99.90;;;;;;5096697;28;20149;-70
2022/01/13 10:55:45;;;;;;;61.72;13.23;;;5.50;99.90;;;;;;5114200;28;20472;-70
2022/01/13 10:58:12;;;;;;;87.85;13.60;;;5.60;99.90;;;;;;5079575;28;20043;-69
2022/01/13 11:00:38;;;;;;;95.10;15.00;;;5.50;99.90;;;;;;5096298;28;20095;-69
2022/01/13 11:03:26;;;;;;;188.25;19.23;;;5.60;99.90;;;;;;5079252;28;20141;-70
2022/01/13 11:06:05;;;;;;;80.47;14.00;;;5.60;99.90;;;;;;5095371;28;20055;-68
2022/01/13 11:08:41;;;;;;;111.53;15.13;;;5.70;99.90;;;;;;5079129;28;20127;-70
2022/01/13 11:11:17;;;;;;;66.45;13.65;;;5.60;99.90;;;;;;5096262;28;20142;-70
2022/01/13 11:13:56;;;;;;;76.18;15.38;;;5.60;99.90;;;;;;5114301;28;20131;-69
2022/01/13 11:16:24;;;;;;;70.28;12.70;;;5.60;99.90;;;;;;5095289;28;20052;-70
2022/01/13 11:18:50;;;;;;;67.60;13.45;;;5.70;99.90;;;;;;5078747;28;20448;-70
2022/01/13 11:21:17;;;;;;;68.95;12.55;;;5.70;99.90;;;;;;5079436;28;20479;-70
2022/01/13 11:23:49;;;;;;;77.78;14.80;;;5.70;99.90;;;;;;5095270;28;20056;-70
2022/01/13 11:26:16;;;;;;;94.65;15.88;;;5.70;99.90;;;;;;5096234;28;20080;-69
2022/01/13 11:28:42;;;;;;;77.65;13.70;;;5.70;99.90;;;;;;5079388;28;20087;-72
2022/01/13 11:31:09;;;;;;;68.20;12.05;;;5.70;99.90;;;;;;5096002;28;20055;-69
2022/01/13 11:33:36;;;;;;;70.03;13.63;;;5.70;99.90;;;;;;5096195;28;20336;-70
2022/01/13 11:36:03;;;;;;;102.97;16.42;;;5.70;99.90;;;;;;5095794;28;20093;-70
2022/01/13 11:38:30;;;;;;;130.25;18.00;;;5.70;99.90;;;;;;5113671;28;20051;-69
2022/01/13 11:41:05;;;;;;;74.38;13.07;;;5.60;99.90;;;;;;5095909;28;20043;-69
2022/01/13 11:43:38;;;;;;;79.32;14.10;;;5.60;99.90;;;;;;5095636;28;20104;-69
2022/01/13 11:46:14;;;;;;;84.05;14.30;;;5.60;99.90;;;;;;5114357;28;20066;-70
2022/01/13 11:49:23;;;;;;;74.03;14.47;;;5.70;99.90;;;;;;5113647;28;20189;-70
2022/01/13 11:52:27;;;;;;;67.88;13.27;;;5.60;99.90;;;;;;5111344;28;20293;-69
2022/01/13 11:54:53;;;;;;;68.90;13.90;;;5.70;99.90;;;;;;5095525;28;20055;-70
2022/01/13 11:57:22;;;;;;;62.03;13.65;;;5.80;99.90;;;;;;5095319;28;20039;-69
2022/01/13 11:59:58;;;;;;;90.70;16.55;;;5.60;99.90;;;;;;5078631;28;20146;-69
2022/01/13 12:02:32;;;;;;;71.97;14.48;;;5.70;99.90;;;;;;5094487;28;20056;-69
2022/01/13 12:05:02;;;;;;;84.07;15.60;;;5.70;99.90;;;;;;5113684;28;20052;-70
2022/01/13 12:07:44;;;;;;;60.70;13.13;;;5.70;99.90;;;;;;5113088;28;20051;-69
2022/01/13 12:10:34;;;;;;;74.20;14.57;;;5.80;99.90;;;;;;5113223;28;20183;-70
2022/01/13 12:13:20;;;;;;;66.20;13.75;;;5.80;99.90;;;;;;5077936;28;20054;-70
2022/01/13 12:15:46;;;;;;;68.90;14.50;;;5.70;99.90;;;;;;5112651;28;20048;-69
2022/01/13 12:18:12;;;;;;;70.32;14.40;;;5.80;99.90;;;;;;5094530;28;20074;-70
2022/01/13 12:20:55;;;;;;;57.92;14.48;;;5.80;99.90;;;;;;5077957;28;20102;-70
2022/01/13 12:23:44;;;;;;;54.45;12.93;;;5.80;99.90;;;;;;5078122;28;20054;-69
2022/01/13 12:26:34;;;;;;;61.70;12.50;;;5.70;99.90;;;;;;5113122;28;20070;-71
2022/01/13 12:29:22;;;;;;;50.70;13.55;;;5.80;99.90;;;;;;5112527;28;20100;-70
2022/01/13 12:32:03;;;;;;;62.47;15.13;;;5.80;99.90;;;;;;5113022;28;20046;-70
2022/01/13 12:34:29;;;;;;;62.90;14.40;;;5.80;99.90;;;;;;5113377;28;20399;-70
2022/01/13 12:37:21;;;;;;;48.65;11.90;;;5.70;99.90;;;;;;5112757;28;20135;-70
2022/01/13 12:39:58;;;;;;;57.28;12.65;;;5.80;99.90;;;;;;5112141;28;20062;-70
2022/01/13 12:42:52;;;;;;;56.10;13.32;;;5.80;99.90;;;;;;5094705;28;20120;-70
2022/01/13 12:45:33;;;;;;;52.65;13.55;;;5.80;99.90;;;;;;5112865;28;20051;-70
2022/01/13 12:48:03;;;;;;;63.83;14.18;;;5.80;99.90;;;;;;5095122;28;20093;-70
2022/01/13 12:50:44;;;;;;;56.40;14.18;;;5.80;99.90;;;;;;5112785;28;20058;-70
2022/01/13 12:53:25;;;;;;;62.03;13.85;;;5.80;99.90;;;;;;5094665;28;20068;-71
2022/01/13 12:55:54;;;;;;;52.83;13.27;;;5.80;99.90;;;;;;5112729;28;20097;-70
2022/01/13 12:58:22;;;;;;;66.40;15.32;;;5.70;99.90;;;;;;5112707;28;20063;-70
2022/01/13 13:00:48;;;;;;;55.42;15.02;;;5.80;99.90;;;;;;5094409;28;20452;-70
2022/01/13 13:03:13;;;;;;;54.45;13.40;;;5.80;99.90;;;;;;5094294;28;20100;-72
2022/01/13 13:05:48;;;;;;;58.65;13.95;;;5.80;99.90;;;;;;5111767;28;20042;-71
2022/01/13 13:08:17;;;;;;;57.50;15.50;;;5.80;99.90;;;;;;5094426;28;20426;-70
2022/01/13 13:10:49;;;;;;;57.35;14.85;;;5.80;99.90;;;;;;5112427;28;20047;-70
2022/01/13 13:13:17;;;;;;;52.90;13.48;;;5.80;99.90;;;;;;5112507;28;20040;-70
2022/01/13 13:15:54;;;;;;;72.45;15.38;;;5.90;99.90;;;;;;5077499;28;20523;-69